createdAt,value
2023-01-02T00:00:23.562Z,1012.51
2023-01-02T00:01:23.735Z,1012.51
2023-01-02T00:02:24.069Z,1012.52
2023-01-02T00:03:24.444Z,1012.52
2023-01-02T00:04:24.612Z,1012.46
2023-01-02T00:05:24.867Z,1012.44
2023-01-02T00:06:25.113Z,1012.41
2023-01-02T00:07:25.393Z,1012.37
2023-01-02T00:08:25.628Z,1012.39
2023-01-02T00:09:25.882Z,1012.32
2023-01-02T00:10:26.169Z,1012.37
2023-01-02T00:11:26.421Z,1012.38
2023-01-02T00:12:26.641Z,1012.38
2023-01-02T00:13:27.032Z,1012.37
2023-01-02T00:14:27.331Z,1012.37
2023-01-02T00:15:27.630Z,1012.39
2023-01-02T00:16:27.922Z,1012.38
2023-01-02T00:17:28.131Z,1012.33
2023-01-02T00:18:28.527Z,1012.40
2023-01-02T00:19:28.780Z,1012.30
2023-01-02T00:20:29.052Z,1012.34
2023-01-02T00:21:29.281Z,1012.24
2023-01-02T00:22:29.509Z,1012.27
2023-01-02T00:23:29.901Z,1012.16
2023-01-02T00:24:30.165Z,1012.17
2023-01-02T00:25:30.396Z,1012.14
2023-01-02T00:26:30.616Z,1012.18
2023-01-02T00:27:30.994Z,1012.22
2023-01-02T00:28:31.274Z,1012.23
2023-01-02T00:29:31.497Z,1012.23
2023-01-02T00:30:38.016Z,1012.20
2023-01-02T00:31:33.140Z,1012.21
2023-01-02T00:32:32.435Z,1012.26
2023-01-02T00:33:32.685Z,1012.17
2023-01-02T00:34:32.925Z,1012.18
2023-01-02T00:35:33.198Z,1012.16
2023-01-02T00:36:33.463Z,1012.18
2023-01-02T00:37:33.717Z,1012.05
2023-01-02T00:38:37.852Z,1011.99
2023-01-02T00:39:34.336Z,1012.03
2023-01-02T00:40:34.577Z,1011.98
2023-01-02T00:41:34.828Z,1011.98
2023-01-02T00:42:35.119Z,1012.01
2023-01-02T00:43:35.378Z,1011.97
2023-01-02T00:44:35.619Z,1011.98
2023-01-02T00:45:35.882Z,1011.93
2023-01-02T00:46:36.148Z,1011.94
2023-01-02T00:47:36.389Z,1011.93
2023-01-02T00:48:36.761Z,1011.94
2023-01-02T00:49:37.003Z,1011.95
2023-01-02T00:50:37.285Z,1012.04
2023-01-02T00:51:37.573Z,1012.00
2023-01-02T00:52:37.811Z,1012.01
2023-01-02T00:53:38.119Z,1011.92
2023-01-02T00:54:38.367Z,1011.95
2023-01-02T00:55:38.643Z,1011.94
2023-01-02T00:56:38.884Z,1011.97
2023-01-02T00:57:39.149Z,1011.93
2023-01-02T00:58:39.402Z,1011.94
2023-01-02T00:59:39.636Z,1011.96
2023-01-02T01:00:39.958Z,1011.94
2023-01-02T01:01:40.371Z,1011.99
2023-01-02T01:02:40.622Z,1011.92
2023-01-02T01:03:40.815Z,1011.97
2023-01-02T01:04:41.077Z,1011.99
2023-01-02T01:05:41.345Z,1012.01
2023-01-02T01:06:41.596Z,1011.96
2023-01-02T01:07:41.951Z,1011.97
2023-01-02T01:08:42.176Z,1011.91
2023-01-02T01:09:42.542Z,1011.91
2023-01-02T01:10:42.830Z,1011.91
2023-01-02T01:11:43.058Z,1011.90
2023-01-02T01:12:43.296Z,1011.89
2023-01-02T01:13:43.644Z,1011.79
2023-01-02T01:14:43.878Z,1011.77
2023-01-02T01:15:44.311Z,1011.71
2023-01-02T01:16:44.615Z,1011.73
2023-01-02T01:17:44.862Z,1011.61
2023-01-02T01:18:45.096Z,1011.65
2023-01-02T01:19:45.362Z,1011.62
2023-01-02T01:20:45.645Z,1011.59
2023-01-02T01:21:45.913Z,1011.59
2023-01-02T01:22:46.149Z,1011.56
2023-01-02T01:23:46.376Z,1011.60
2023-01-02T01:24:46.640Z,1011.63
2023-01-02T01:25:46.885Z,1011.62
2023-01-02T01:26:47.146Z,1011.63
2023-01-02T01:27:47.388Z,1011.66
2023-01-02T01:28:47.658Z,1011.61
2023-01-02T01:29:47.887Z,1011.60
2023-01-02T01:30:48.271Z,1011.60
2023-01-02T01:31:48.593Z,1011.59
2023-01-02T01:32:48.843Z,1011.63
2023-01-02T01:33:49.073Z,1011.63
2023-01-02T01:34:49.289Z,1011.66
2023-01-02T01:35:49.695Z,1011.61
2023-01-02T01:36:49.952Z,1011.55
2023-01-02T01:37:50.193Z,1011.55
2023-01-02T01:38:50.443Z,1011.57
2023-01-02T01:39:56.180Z,1011.57
2023-01-02T01:40:51.906Z,1011.54
2023-01-02T01:41:51.200Z,1011.55
2023-01-02T01:42:52.966Z,1011.49
2023-01-02T01:43:51.689Z,1011.46
2023-01-02T01:44:51.910Z,1011.44
2023-01-02T01:45:52.269Z,1011.43
2023-01-02T01:46:52.480Z,1011.41
2023-01-02T01:47:52.788Z,1011.40
2023-01-02T01:48:53.068Z,1011.38
2023-01-02T01:49:53.324Z,1011.36
2023-01-02T01:50:53.598Z,1011.41
2023-01-02T01:51:53.866Z,1011.37
2023-01-02T01:52:54.092Z,1011.38
2023-01-02T01:53:54.348Z,1011.42
2023-01-02T01:54:54.570Z,1011.36
2023-01-02T01:55:54.943Z,1011.30
2023-01-02T01:56:55.179Z,1011.23
2023-01-02T01:57:55.543Z,1011.20
2023-01-02T01:58:55.762Z,1011.17
2023-01-02T01:59:56.132Z,1011.10
2023-01-02T02:00:56.474Z,1011.13
2023-01-02T02:01:56.800Z,1011.16
2023-01-02T02:02:57.008Z,1011.19
2023-01-02T02:03:57.282Z,1011.20
2023-01-02T02:04:57.529Z,1011.25
2023-01-02T02:05:57.785Z,1011.21
2023-01-02T02:06:58.000Z,1011.18
2023-01-02T02:07:58.347Z,1011.21
2023-01-02T02:08:58.684Z,1011.17
2023-01-02T02:09:59.109Z,1011.11
2023-01-02T02:10:59.397Z,1011.15
2023-01-02T02:11:59.680Z,1011.12
2023-01-02T02:12:59.946Z,1011.17
2023-01-02T02:14:00.193Z,1011.15
2023-01-02T02:15:00.445Z,1011.14
2023-01-02T02:16:00.727Z,1011.18
2023-01-02T02:17:00.949Z,1011.17
2023-01-02T02:18:01.318Z,1011.22
2023-01-02T02:19:01.547Z,1011.21
2023-01-02T02:20:01.786Z,1011.23
2023-01-02T02:21:02.085Z,1011.22
2023-01-02T02:22:02.324Z,1011.20
2023-01-02T02:23:02.581Z,1011.22
2023-01-02T02:24:02.840Z,1011.27
2023-01-02T02:25:03.097Z,1011.22
2023-01-02T02:26:03.361Z,1011.18
2023-01-02T02:27:03.672Z,1011.15
2023-01-02T02:28:03.924Z,1011.18
2023-01-02T02:29:04.153Z,1011.12
2023-01-02T02:30:04.405Z,1011.20
2023-01-02T02:31:04.813Z,1011.16
2023-01-02T02:32:04.952Z,1011.14
2023-01-02T02:33:05.185Z,1011.09
2023-01-02T02:34:05.418Z,1011.01
2023-01-02T02:35:05.809Z,1011.03
2023-01-02T02:36:06.091Z,1011.01
2023-01-02T02:37:06.300Z,1011.02
2023-01-02T02:38:06.649Z,1010.99
2023-01-02T02:39:06.994Z,1010.96
2023-01-02T02:40:07.384Z,1010.94
2023-01-02T02:41:07.625Z,1010.92
2023-01-02T02:42:07.863Z,1010.83
2023-01-02T02:43:08.111Z,1010.77
2023-01-02T02:44:08.325Z,1010.73
2023-01-02T02:45:08.567Z,1010.71
2023-01-02T02:46:08.922Z,1010.71
2023-01-02T02:47:09.052Z,1010.68
2023-01-02T02:48:09.397Z,1010.61
2023-01-02T02:49:09.760Z,1010.68
2023-01-02T02:50:09.980Z,1010.71
2023-01-02T02:51:10.207Z,1010.69
2023-01-02T02:52:10.583Z,1010.64
2023-01-02T02:53:10.820Z,1010.62
2023-01-02T02:54:11.038Z,1010.56
2023-01-02T02:55:11.387Z,1010.48
2023-01-02T02:56:11.789Z,1010.43
2023-01-02T02:57:12.000Z,1010.36
2023-01-02T02:58:12.382Z,1010.35
2023-01-02T02:59:12.628Z,1010.36
2023-01-02T03:00:12.865Z,1010.29
2023-01-02T03:01:13.203Z,1010.25
2023-01-02T03:02:13.536Z,1010.28
2023-01-02T03:03:13.761Z,1010.27
2023-01-02T03:04:14.001Z,1010.26
2023-01-02T03:05:14.233Z,1010.22
2023-01-02T03:06:14.505Z,1010.11
2023-01-02T03:07:14.742Z,1009.93
2023-01-02T03:08:14.972Z,1009.93
2023-01-02T03:09:15.245Z,1009.97
2023-01-02T03:10:15.561Z,1010.01
2023-01-02T03:11:15.814Z,1009.93
2023-01-02T03:12:16.094Z,1009.91
2023-01-02T03:13:16.340Z,1009.91
2023-01-02T03:14:16.581Z,1009.89
2023-01-02T03:15:16.857Z,1009.84
2023-01-02T03:16:17.130Z,1009.81
2023-01-02T03:17:17.367Z,1009.75
2023-01-02T03:18:17.655Z,1009.76
2023-01-02T03:19:17.932Z,1009.75
2023-01-02T03:20:18.162Z,1009.68
2023-01-02T03:21:18.526Z,1009.70
2023-01-02T03:22:18.756Z,1009.67
2023-01-02T03:23:18.977Z,1009.71
2023-01-02T03:24:19.347Z,1009.68
2023-01-02T03:25:19.605Z,1009.69
2023-01-02T03:26:19.842Z,1009.67
2023-01-02T03:27:20.078Z,1009.65
2023-01-02T03:28:20.341Z,1009.64
2023-01-02T03:29:20.613Z,1009.59
2023-01-02T03:30:20.840Z,1009.59
2023-01-02T03:31:21.152Z,1009.64
2023-01-02T03:32:21.425Z,1009.59
2023-01-02T03:33:21.633Z,1009.64
2023-01-02T03:34:21.979Z,1009.61
2023-01-02T03:35:22.426Z,1009.63
2023-01-02T03:36:22.720Z,1009.59
2023-01-02T03:37:22.990Z,1009.53
2023-01-02T03:38:23.292Z,1009.52
2023-01-02T03:39:23.541Z,1009.55
2023-01-02T03:40:23.795Z,1009.49
2023-01-02T03:41:24.110Z,1009.58
2023-01-02T03:42:24.351Z,1009.65
2023-01-02T03:43:24.598Z,1009.60
2023-01-02T03:44:24.836Z,1009.55
2023-01-02T03:45:25.082Z,1009.58
2023-01-02T03:46:25.364Z,1009.58
2023-01-02T03:47:25.564Z,1009.56
2023-01-02T03:48:25.932Z,1009.48
2023-01-02T03:49:26.190Z,1009.48
2023-01-02T03:50:26.467Z,1009.50
2023-01-02T03:51:26.717Z,1009.56
2023-01-02T03:52:26.956Z,1009.51
2023-01-02T03:53:27.211Z,1009.52
2023-01-02T03:54:27.473Z,1009.48
2023-01-02T03:55:27.689Z,1009.49
2023-01-02T03:56:27.943Z,1009.36
2023-01-02T03:57:28.189Z,1009.35
2023-01-02T03:58:28.434Z,1009.34
2023-01-02T03:59:28.672Z,1009.29
2023-01-02T04:00:28.950Z,1009.34
2023-01-02T04:01:29.319Z,1009.35
2023-01-02T04:02:29.716Z,1009.30
2023-01-02T04:03:29.808Z,1009.31
2023-01-02T04:04:30.030Z,1009.37
2023-01-02T04:05:30.312Z,1009.37
2023-01-02T04:06:30.560Z,1009.31
2023-01-02T04:07:30.822Z,1009.33
2023-01-02T04:08:31.088Z,1009.30
2023-01-02T04:09:31.352Z,1009.30
2023-01-02T04:10:31.614Z,1009.36
2023-01-02T04:11:31.891Z,1009.35
2023-01-02T04:12:32.134Z,1009.43
2023-01-02T04:13:32.418Z,1009.43
2023-01-02T04:14:32.678Z,1009.42
2023-01-02T04:15:32.978Z,1009.39
2023-01-02T04:16:33.283Z,1009.40
2023-01-02T04:17:33.564Z,1009.34
2023-01-02T04:18:33.820Z,1009.35
2023-01-02T04:19:34.068Z,1009.32
2023-01-02T04:20:34.356Z,1009.23
2023-01-02T04:21:34.615Z,1009.25
2023-01-02T04:22:34.887Z,1009.22
2023-01-02T04:23:35.168Z,1009.27
2023-01-02T04:24:35.392Z,1009.22
2023-01-02T04:25:35.776Z,1009.26
2023-01-02T04:26:36.066Z,1009.21
2023-01-02T04:27:36.298Z,1009.19
2023-01-02T04:28:36.551Z,1009.30
2023-01-02T04:29:36.770Z,1009.22
2023-01-02T04:30:37.030Z,1009.21
2023-01-02T04:31:37.451Z,1009.22
2023-01-02T04:32:37.499Z,1009.20
2023-01-02T04:33:37.871Z,1009.23
2023-01-02T04:34:38.099Z,1009.24
2023-01-02T04:35:38.339Z,1009.29
2023-01-02T04:36:38.615Z,1009.28
2023-01-02T04:37:38.849Z,1009.25
2023-01-02T04:38:39.103Z,1009.25
2023-01-02T04:39:39.325Z,1009.24
2023-01-02T04:40:39.592Z,1009.15
2023-01-02T04:41:39.869Z,1009.26
2023-01-02T04:42:40.112Z,1009.15
2023-01-02T04:43:40.372Z,1009.18
2023-01-02T04:44:40.623Z,1009.19
2023-01-02T04:45:40.868Z,1009.26
2023-01-02T04:46:41.147Z,1009.22
2023-01-02T04:47:41.423Z,1009.16
2023-01-02T04:48:41.648Z,1009.26
2023-01-02T04:49:42.027Z,1009.20
2023-01-02T04:50:42.472Z,1009.19
2023-01-02T04:51:42.601Z,1009.21
2023-01-02T04:52:42.907Z,1009.20
2023-01-02T04:53:43.164Z,1009.15
2023-01-02T04:54:43.449Z,1009.17
2023-01-02T04:55:43.706Z,1009.11
2023-01-02T04:56:44.000Z,1009.06
2023-01-02T04:57:44.288Z,1009.04
2023-01-02T04:58:44.550Z,1008.94
2023-01-02T04:59:44.863Z,1008.96
2023-01-02T05:00:45.220Z,1008.91
2023-01-02T05:01:45.656Z,1008.94
2023-01-02T05:02:45.840Z,1008.98
2023-01-02T05:03:46.177Z,1008.91
2023-01-02T05:04:46.393Z,1008.91
2023-01-02T05:05:46.671Z,1008.96
2023-01-02T05:06:46.931Z,1009.00
2023-01-02T05:07:47.208Z,1008.90
2023-01-02T05:08:47.467Z,1008.90
2023-01-02T05:09:47.743Z,1008.99
2023-01-02T05:10:48.011Z,1009.02
2023-01-02T05:11:48.385Z,1008.96
2023-01-02T05:12:48.592Z,1008.99
2023-01-02T05:13:48.871Z,1008.98
2023-01-02T05:14:49.139Z,1009.02
2023-01-02T05:15:49.563Z,1009.01
2023-01-02T05:16:49.775Z,1009.07
2023-01-02T05:17:50.058Z,1009.04
2023-01-02T05:19:57.951Z,1009.02
2023-01-02T05:20:55.992Z,1009.05
2023-01-02T05:21:56.444Z,1008.97
2023-01-02T05:22:56.023Z,1008.95
2023-01-02T05:23:56.445Z,1008.95
2023-01-02T05:24:56.709Z,1008.94
2023-01-02T05:25:57.016Z,1008.96
2023-01-02T05:26:57.708Z,1008.92
2023-01-02T05:27:57.721Z,1008.91
2023-01-02T05:28:58.295Z,1008.97
2023-01-02T05:29:58.081Z,1008.93
2023-01-02T05:30:58.583Z,1008.96
2023-01-02T05:31:58.884Z,1008.93
2023-01-02T05:32:59.282Z,1008.94
2023-01-02T05:34:04.391Z,1008.90
2023-01-02T05:34:59.820Z,1008.96
2023-01-02T05:35:59.843Z,1008.87
2023-01-02T05:37:00.193Z,1008.93
2023-01-02T05:38:00.713Z,1008.93
2023-01-02T05:39:00.706Z,1008.95
2023-01-02T05:40:00.958Z,1008.96
2023-01-02T05:41:01.246Z,1008.88
2023-01-02T05:42:01.621Z,1008.85
2023-01-02T05:43:01.763Z,1008.85
2023-01-02T05:44:02.022Z,1008.91
2023-01-02T05:45:02.265Z,1008.91
2023-01-02T05:46:02.569Z,1008.93
2023-01-02T05:47:02.837Z,1008.91
2023-01-02T05:48:03.078Z,1008.82
2023-01-02T05:49:03.398Z,1008.86
2023-01-02T05:50:03.642Z,1008.79
2023-01-02T05:51:03.880Z,1008.82
2023-01-02T05:52:04.196Z,1008.78
2023-01-02T05:53:04.468Z,1008.76
2023-01-02T05:54:04.763Z,1008.81
2023-01-02T05:55:05.027Z,1008.73
2023-01-02T05:56:05.309Z,1008.73
2023-01-02T05:57:05.584Z,1008.77
2023-01-02T05:58:05.899Z,1008.79
2023-01-02T05:59:06.221Z,1008.77
2023-01-02T06:00:06.475Z,1008.77
2023-01-02T06:01:06.750Z,1008.82
2023-01-02T06:02:07.061Z,1008.81
2023-01-02T06:03:07.377Z,1008.84
2023-01-02T06:04:07.623Z,1008.83
2023-01-02T06:05:07.921Z,1008.82
2023-01-02T06:06:08.221Z,1008.77
2023-01-02T06:07:08.492Z,1008.79
2023-01-02T06:08:08.812Z,1008.83
2023-01-02T06:09:09.114Z,1008.82
2023-01-02T06:10:09.355Z,1008.83
2023-01-02T06:11:09.630Z,1008.88
2023-01-02T06:12:09.920Z,1008.86
2023-01-02T06:13:10.227Z,1008.87
2023-01-02T06:14:10.568Z,1008.89
2023-01-02T06:15:10.782Z,1008.82
2023-01-02T06:16:11.242Z,1008.86
2023-01-02T06:17:11.405Z,1008.88
2023-01-02T06:18:11.654Z,1008.82
2023-01-02T06:19:11.864Z,1008.80
2023-01-02T06:20:12.244Z,1008.86
2023-01-02T06:21:12.501Z,1008.85
2023-01-02T06:22:12.769Z,1008.83
2023-01-02T06:23:13.015Z,1008.86
2023-01-02T06:24:13.283Z,1008.85
2023-01-02T06:25:13.528Z,1008.88
2023-01-02T06:26:13.772Z,1008.85
2023-01-02T06:27:14.107Z,1008.80
2023-01-02T06:28:14.334Z,1008.85
2023-01-02T06:29:14.592Z,1008.87
2023-01-02T06:30:14.960Z,1008.96
2023-01-02T06:31:15.221Z,1008.96
2023-01-02T06:32:15.587Z,1008.96
2023-01-02T06:33:15.858Z,1008.91
2023-01-02T06:34:16.123Z,1008.94
2023-01-02T06:35:16.361Z,1008.91
2023-01-02T06:36:16.598Z,1008.86
2023-01-02T06:37:16.910Z,1008.87
2023-01-02T06:38:17.231Z,1008.75
2023-01-02T06:39:17.469Z,1008.75
2023-01-02T06:40:17.813Z,1008.73
2023-01-02T06:41:18.093Z,1008.70
2023-01-02T06:42:18.393Z,1008.66
2023-01-02T06:43:18.644Z,1008.64
2023-01-02T06:44:18.887Z,1008.67
2023-01-02T06:45:19.181Z,1008.64
2023-01-02T06:46:19.509Z,1008.65
2023-01-02T06:47:19.807Z,1008.68
2023-01-02T06:48:20.042Z,1008.75
2023-01-02T06:49:20.294Z,1008.77
2023-01-02T06:50:24.275Z,1008.79
2023-01-02T06:51:21.830Z,1008.67
2023-01-02T06:52:21.073Z,1008.83
2023-01-02T06:53:21.399Z,1008.78
2023-01-02T06:54:21.615Z,1008.76
2023-01-02T06:55:22.005Z,1008.66
2023-01-02T06:56:22.378Z,1008.66
2023-01-02T06:57:22.692Z,1008.65
2023-01-02T06:58:22.977Z,1008.79
2023-01-02T06:59:24.964Z,1008.73
2023-01-02T07:00:23.520Z,1008.84
2023-01-02T07:01:24.152Z,1008.84
2023-01-02T07:02:25.567Z,1008.75
2023-01-02T07:03:25.185Z,1008.70
2023-01-02T07:04:24.640Z,1008.64
2023-01-02T07:05:25.573Z,1008.69
2023-01-02T07:06:25.262Z,1008.70
2023-01-02T07:07:25.520Z,1008.72
2023-01-02T07:08:26.158Z,1008.67
2023-01-02T07:09:48.275Z,1008.73
2023-01-02T07:10:26.656Z,1008.76
2023-01-02T07:11:27.836Z,1008.79
2023-01-02T07:12:26.945Z,1008.73
2023-01-02T07:13:28.601Z,1008.84
2023-01-02T07:14:27.416Z,1008.86
2023-01-02T07:15:27.633Z,1008.86
2023-01-02T07:16:28.782Z,1008.85
2023-01-02T07:17:28.264Z,1008.82
2023-01-02T07:18:28.637Z,1008.74
2023-01-02T07:19:29.003Z,1008.82
2023-01-02T07:20:29.424Z,1008.74
2023-01-02T07:21:29.403Z,1008.77
2023-01-02T07:22:29.904Z,1008.75
2023-01-02T07:23:30.137Z,1008.79
2023-01-02T07:24:30.278Z,1008.78
2023-01-02T07:25:31.005Z,1008.82
2023-01-02T07:26:30.975Z,1008.88
2023-01-02T07:27:31.165Z,1008.86
2023-01-02T07:28:31.425Z,1008.93
2023-01-02T07:29:31.694Z,1009.00
2023-01-02T07:30:31.963Z,1009.01
2023-01-02T07:31:32.251Z,1008.92
2023-01-02T07:32:32.668Z,1008.90
2023-01-02T07:33:32.908Z,1008.84
2023-01-02T07:34:32.986Z,1008.79
2023-01-02T07:35:33.268Z,1008.84
2023-01-02T07:36:33.579Z,1008.90
2023-01-02T07:37:33.830Z,1008.96
2023-01-02T07:38:34.086Z,1008.93
2023-01-02T07:39:34.330Z,1008.97
2023-01-02T07:40:34.872Z,1009.01
2023-01-02T07:41:34.819Z,1008.94
2023-01-02T07:42:35.242Z,1008.98
2023-01-02T07:43:35.419Z,1008.97
2023-01-02T07:44:36.007Z,1008.98
2023-01-02T07:45:36.162Z,1008.84
2023-01-02T07:46:36.480Z,1008.98
2023-01-02T07:47:36.759Z,1009.01
2023-01-02T07:48:37.016Z,1009.03
2023-01-02T07:49:37.296Z,1008.92
2023-01-02T07:50:37.607Z,1009.04
2023-01-02T07:51:37.883Z,1009.03
2023-01-02T07:52:38.186Z,1009.01
2023-01-02T07:53:38.515Z,1008.99
2023-01-02T07:54:38.762Z,1008.99
2023-01-02T07:55:39.045Z,1008.97
2023-01-02T07:56:39.335Z,1008.97
2023-01-02T07:57:39.642Z,1008.96
2023-01-02T07:58:39.956Z,1008.94
2023-01-02T07:59:40.255Z,1008.92
2023-01-02T08:00:40.534Z,1008.97
2023-01-02T08:01:40.854Z,1009.06
2023-01-02T08:02:41.245Z,1008.98
2023-01-02T08:03:41.555Z,1008.98
2023-01-02T08:04:41.723Z,1008.91
2023-01-02T08:05:41.991Z,1008.81
2023-01-02T08:06:42.255Z,1008.89
2023-01-02T08:07:45.060Z,1008.90
2023-01-02T08:08:42.834Z,1008.94
2023-01-02T08:09:43.114Z,1008.88
2023-01-02T08:10:43.360Z,1008.87
2023-01-02T08:11:43.610Z,1008.89
2023-01-02T08:12:43.885Z,1008.88
2023-01-02T08:13:44.151Z,1008.76
2023-01-02T08:14:44.420Z,1008.84
2023-01-02T08:15:44.699Z,1008.82
2023-01-02T08:16:44.968Z,1008.89
2023-01-02T08:17:45.252Z,1008.82
2023-01-02T08:18:45.538Z,1008.86
2023-01-02T08:19:45.819Z,1008.85
2023-01-02T08:20:46.053Z,1008.75
2023-01-02T08:21:46.352Z,1008.89
2023-01-02T08:22:46.611Z,1008.78
2023-01-02T08:23:46.890Z,1008.86
2023-01-02T08:24:47.151Z,1008.83
2023-01-02T08:25:50.282Z,1008.89
2023-01-02T08:26:48.723Z,1008.85
2023-01-02T08:27:47.973Z,1008.88
2023-01-02T08:28:48.240Z,1008.93
2023-01-02T08:29:48.498Z,1008.96
2023-01-02T08:30:48.818Z,1008.96
2023-01-02T08:31:49.236Z,1008.91
2023-01-02T08:32:49.515Z,1008.91
2023-01-02T08:33:49.729Z,1008.79
2023-01-02T08:34:50.347Z,1008.85
2023-01-02T08:35:50.181Z,1008.93
2023-01-02T08:36:50.433Z,1008.95
2023-01-02T08:37:51.005Z,1008.94
2023-01-02T08:38:50.979Z,1008.92
2023-01-02T08:39:52.359Z,1008.91
2023-01-02T08:40:51.568Z,1009.02
2023-01-02T08:41:57.500Z,1008.90
2023-01-02T08:42:52.169Z,1008.94
2023-01-02T08:43:52.547Z,1008.95
2023-01-02T08:44:52.557Z,1008.90
2023-01-02T08:45:52.966Z,1008.84
2023-01-02T08:46:53.193Z,1008.85
2023-01-02T08:47:53.569Z,1008.91
2023-01-02T08:48:53.690Z,1008.86
2023-01-02T08:49:53.969Z,1008.89
2023-01-02T08:50:54.237Z,1008.87
2023-01-02T08:51:54.537Z,1008.85
2023-01-02T08:52:54.949Z,1008.92
2023-01-02T08:53:55.344Z,1008.90
2023-01-02T08:54:55.376Z,1008.92
2023-01-02T08:55:55.661Z,1008.85
2023-01-02T08:56:56.072Z,1008.92
2023-01-02T08:57:56.223Z,1008.91
2023-01-02T08:58:56.527Z,1008.95
2023-01-02T08:59:56.873Z,1008.93
2023-01-02T09:00:57.035Z,1008.91
2023-01-02T09:01:57.434Z,1008.87
2023-01-02T09:02:57.805Z,1008.89
2023-01-02T09:03:57.939Z,1008.92
2023-01-02T09:04:58.214Z,1008.88
2023-01-02T09:05:58.511Z,1008.91
2023-01-02T09:06:58.816Z,1008.87
2023-01-02T09:07:59.083Z,1008.82
2023-01-02T09:08:59.259Z,1008.94
2023-01-02T09:09:59.545Z,1008.89
2023-01-02T09:10:59.886Z,1008.94
2023-01-02T09:12:00.211Z,1008.92
2023-01-02T09:13:00.546Z,1009.00
2023-01-02T09:14:00.853Z,1009.01
2023-01-02T09:15:01.158Z,1008.97
2023-01-02T09:16:01.459Z,1008.99
2023-01-02T09:17:01.792Z,1008.95
2023-01-02T09:18:02.143Z,1009.02
2023-01-02T09:19:02.317Z,1008.94
2023-01-02T09:20:02.579Z,1008.98
2023-01-02T09:21:02.850Z,1008.92
2023-01-02T09:22:03.139Z,1008.95
2023-01-02T09:23:03.432Z,1008.94
2023-01-02T09:24:03.700Z,1008.93
2023-01-02T09:25:03.984Z,1008.91
2023-01-02T09:26:04.280Z,1008.94
2023-01-02T09:27:04.572Z,1008.93
2023-01-02T09:28:04.881Z,1008.90
2023-01-02T09:29:05.224Z,1008.88
2023-01-02T09:30:05.402Z,1008.93
2023-01-02T09:31:11.648Z,1008.97
2023-01-02T09:32:06.916Z,1008.97
2023-01-02T09:33:06.242Z,1008.92
2023-01-02T09:34:06.521Z,1008.86
2023-01-02T09:35:06.803Z,1008.85
2023-01-02T09:36:07.086Z,1008.88
2023-01-02T09:37:07.367Z,1008.85
2023-01-02T09:38:07.672Z,1008.92
2023-01-02T09:39:07.967Z,1008.88
2023-01-02T09:40:08.218Z,1008.88
2023-01-02T09:41:08.493Z,1008.93
2023-01-02T09:42:08.852Z,1008.94
2023-01-02T09:43:09.008Z,1008.91
2023-01-02T09:44:09.291Z,1008.86
2023-01-02T09:45:09.557Z,1008.83
2023-01-02T09:46:09.884Z,1008.83
2023-01-02T09:47:10.090Z,1008.94
2023-01-02T09:48:10.398Z,1008.92
2023-01-02T09:49:10.681Z,1008.93
2023-01-02T09:50:10.991Z,1008.77
2023-01-02T09:51:11.263Z,1008.74
2023-01-02T09:52:11.560Z,1008.73
2023-01-02T09:53:11.848Z,1008.81
2023-01-02T09:54:12.157Z,1008.85
2023-01-02T09:55:12.454Z,1008.82
2023-01-02T09:56:16.433Z,1008.70
2023-01-02T09:57:14.014Z,1008.69
2023-01-02T09:58:13.251Z,1008.74
2023-01-02T09:59:13.555Z,1008.74
2023-01-02T10:00:13.834Z,1008.75
2023-01-02T10:01:14.183Z,1008.65
2023-01-02T10:02:14.474Z,1008.74
2023-01-02T10:03:14.907Z,1008.71
2023-01-02T10:04:15.069Z,1008.65
2023-01-02T10:05:15.360Z,1008.60
2023-01-02T10:06:15.653Z,1008.57
2023-01-02T10:07:15.994Z,1008.57
2023-01-02T10:08:17.213Z,1008.53
2023-01-02T10:09:16.611Z,1008.57
2023-01-02T10:10:16.942Z,1008.52
2023-01-02T10:11:17.243Z,1008.47
2023-01-02T10:12:17.573Z,1008.45
2023-01-02T10:13:17.881Z,1008.42
2023-01-02T10:14:19.842Z,1008.38
2023-01-02T10:15:20.867Z,1008.38
2023-01-02T10:16:18.794Z,1008.28
2023-01-02T10:17:19.059Z,1008.32
2023-01-02T10:18:20.048Z,1008.28
2023-01-02T10:19:19.689Z,1008.32
2023-01-02T10:20:24.091Z,1008.31
2023-01-02T10:21:20.285Z,1008.34
2023-01-02T10:22:20.561Z,1008.27
2023-01-02T10:23:20.981Z,1008.29
2023-01-02T10:24:21.033Z,1008.29
2023-01-02T10:25:21.348Z,1008.31
2023-01-02T10:26:21.685Z,1008.25
2023-01-02T10:27:21.987Z,1008.33
2023-01-02T10:28:22.339Z,1008.29
2023-01-02T10:29:22.669Z,1008.25
2023-01-02T10:30:23.066Z,1008.25
2023-01-02T10:31:23.260Z,1008.26
2023-01-02T10:32:23.558Z,1008.33
2023-01-02T10:33:23.682Z,1008.30
2023-01-02T10:34:23.964Z,1008.28
2023-01-02T10:35:24.203Z,1008.23
2023-01-02T10:36:25.233Z,1008.21
2023-01-02T10:37:24.748Z,1008.31
2023-01-02T10:38:25.018Z,1008.30
2023-01-02T10:39:25.287Z,1008.29
2023-01-02T10:40:25.640Z,1008.20
2023-01-02T10:41:25.826Z,1008.28
2023-01-02T10:42:26.087Z,1008.26
2023-01-02T10:43:26.379Z,1008.22
2023-01-02T10:44:26.636Z,1008.24
2023-01-02T10:45:26.913Z,1008.18
2023-01-02T10:46:27.253Z,1008.12
2023-01-02T10:47:27.526Z,1008.13
2023-01-02T10:48:27.885Z,1008.12
2023-01-02T10:49:28.149Z,1008.05
2023-01-02T10:50:28.429Z,1008.09
2023-01-02T10:51:28.714Z,1008.09
2023-01-02T10:52:28.986Z,1008.07
2023-01-02T10:53:29.281Z,1008.08
2023-01-02T10:54:29.609Z,1008.04
2023-01-02T10:55:29.899Z,1008.06
2023-01-02T10:56:30.174Z,1008.07
2023-01-02T10:57:30.442Z,1008.00
2023-01-02T10:58:30.754Z,1007.98
2023-01-02T10:59:31.005Z,1008.00
2023-01-02T11:00:31.292Z,1007.99
2023-01-02T11:01:31.661Z,1008.02
2023-01-02T11:02:32.008Z,1008.00
2023-01-02T11:03:32.163Z,1007.98
2023-01-02T11:04:32.435Z,1007.97
2023-01-02T11:05:32.685Z,1007.97
2023-01-02T11:06:39.276Z,1007.95
2023-01-02T11:07:34.290Z,1007.99
2023-01-02T11:08:33.636Z,1007.94
2023-01-02T11:09:33.915Z,1007.98
2023-01-02T11:10:34.178Z,1007.98
2023-01-02T11:11:34.463Z,1007.88
2023-01-02T11:12:34.760Z,1007.95
2023-01-02T11:13:35.118Z,1008.02
2023-01-02T11:14:35.480Z,1008.02
2023-01-02T11:15:35.613Z,1008.01
2023-01-02T11:16:35.890Z,1008.07
2023-01-02T11:17:36.161Z,1007.87
2023-01-02T11:18:36.459Z,1007.90
2023-01-02T11:19:36.749Z,1007.97
2023-01-02T11:20:37.013Z,1007.99
2023-01-02T11:21:37.270Z,1008.00
2023-01-02T11:22:37.535Z,1007.98
2023-01-02T11:23:37.812Z,1007.95
2023-01-02T11:24:38.083Z,1007.88
2023-01-02T11:25:38.343Z,1007.99
2023-01-02T11:26:38.634Z,1007.97
2023-01-02T11:27:38.924Z,1007.91
2023-01-02T11:28:39.228Z,1007.98
2023-01-02T11:29:39.483Z,1007.94
2023-01-02T11:30:39.767Z,1007.98
2023-01-02T11:31:40.049Z,1008.01
2023-01-02T11:32:40.389Z,1007.98
2023-01-02T11:33:40.708Z,1007.92
2023-01-02T11:34:40.992Z,1008.01
2023-01-02T11:35:41.235Z,1008.07
2023-01-02T11:36:41.517Z,1008.06
2023-01-02T11:37:41.768Z,1008.03
2023-01-02T11:38:42.042Z,1008.04
2023-01-02T11:39:42.310Z,1008.05
2023-01-02T11:40:42.567Z,1008.06
2023-01-02T11:41:42.815Z,1008.05
2023-01-02T11:42:43.108Z,1008.01
2023-01-02T11:43:43.383Z,1008.00
2023-01-02T11:44:43.634Z,1007.97
2023-01-02T11:45:43.917Z,1008.00
2023-01-02T11:46:44.176Z,1008.08
2023-01-02T11:47:44.442Z,1008.08
2023-01-02T11:48:44.711Z,1008.07
2023-01-02T11:49:44.989Z,1008.05
2023-01-02T11:50:45.250Z,1008.13
2023-01-02T11:51:45.523Z,1008.15
2023-01-02T11:52:45.863Z,1008.19
2023-01-02T11:53:46.161Z,1008.21
2023-01-02T11:54:46.433Z,1008.23
2023-01-02T11:55:46.706Z,1008.15
2023-01-02T11:56:46.980Z,1008.20
2023-01-02T11:57:47.224Z,1008.21
2023-01-02T11:58:47.526Z,1008.18
2023-01-02T11:59:47.800Z,1008.19
2023-01-02T12:00:48.076Z,1008.18
2023-01-02T12:01:48.501Z,1008.15
2023-01-02T12:02:48.837Z,1008.14
2023-01-02T12:03:48.916Z,1008.10
2023-01-02T12:04:49.227Z,1008.12
2023-01-02T12:05:49.504Z,1008.16
2023-01-02T12:06:49.784Z,1008.14
2023-01-02T12:07:50.109Z,1008.05
2023-01-02T12:08:51.607Z,1008.10
2023-01-02T12:09:50.649Z,1008.11